ZA-0027 weather

Bronkhorstspruit Airport
Bronkhorstspruit, Gauteng, South Africa

Public forecast

Using degrees Celsius for public forecast. Weather courtesy of forecast.io.

Closest aviation weather report (METAR) to Bronkhorstspruit Airport

Closest report is Waterkloof Air Force Base, 27.5 nm (50.9 km) W. Retrieved 2020/02/25 08:00 UTC (17 minutes ago):

FAWK 250800Z AUTO 01005KT //// // ////// 19/13 Q1026

Closest aviation forecast (TAF) to Bronkhorstspruit Airport

Forecast is more than 12 hours old.

Closest forecast is Waterkloof Air Force Base, 27.5 nm (50.9 km) W. Retrieved 2019/01/10 07:00 UTC (1 year ago):

TAF FAWK 100800Z 1007/1018 33007KT 9999 SCT035 PROB30 TEMPO 1007/1009 -TSRA FEW035CB BECMG 1010/1012 CAVOK PROB30 TEMPO 1016/1018 VRB03KT SCT030 FEW035TCU TX30/1013Z TN25/1018Z